Time;durP1;ratioP1;P1;durP2;ratioP2;P2;SDS_P1;SDS_P2;PMS_P1;PMS_P2;Temp;Humidity;BMP_temperature;BMP_pressure;BME280_temperature;BME280_humidity;BME280_pressure;Samples;Min_cycle;Max_cycle;Signal;HPM_P1;HPM_P2
2022/03/15 00:00:21;;;;;;;;;;;;;;;;;;5035543;28;20000;-56
2022/03/15 00:02:49;;;;;;;;;;;;;;;;;;5035390;28;20331;-57
2022/03/15 00:05:15;;;;;;;;;;;;;;;;;;5035688;28;19905;-56
2022/03/15 00:07:41;;;;;;;;;;;;;;;;;;5034122;28;19916;-57
2022/03/15 00:10:07;;;;;;;;;;;;;;;;;;5035459;28;19905;-57
2022/03/15 00:12:34;;;;;;;;;;;;;;;;;;5035351;28;19959;-56
2022/03/15 00:15:00;;;;;;;;;;;;;;;;;;5035238;28;19967;-56
2022/03/15 00:17:26;;;;;;;;;;;;;;;;;;5035236;28;19909;-57
2022/03/15 00:19:52;;;;;;;;;;;;;;;;;;5035302;28;20355;-57
2022/03/15 00:22:18;;;;;;;;;;;;;;;;;;5035210;28;19905;-57
2022/03/15 00:24:45;;;;;;;;;;;;;;;;;;5035150;28;19958;-57
2022/03/15 00:27:12;;;;;;;;;;;;;;;;;;5035108;28;19916;-57
2022/03/15 00:29:39;;;;;;;;;;;;;;;;;;5035321;28;20019;-56
2022/03/15 00:32:06;;;;;;;;;;;;;;;;;;5035080;28;20330;-57
2022/03/15 00:34:32;;;;;;;;;;;;;;;;;;5034950;28;19911;-58
2022/03/15 00:36:58;;;;;;;;;;;;;;;;;;5034897;28;20334;-56
2022/03/15 00:39:24;;;;;;;;;;;;;;;;;;5034988;28;19905;-57
2022/03/15 00:41:50;;;;;;;;;;;;;;;;;;5034810;28;20322;-57
2022/03/15 00:44:16;;;;;;;;;;;;;;;;;;5034802;28;19941;-57
2022/03/15 00:46:42;;;;;;;;;;;;;;;;;;5034660;28;19905;-56
2022/03/15 00:49:07;;;;;;;;;;;;;;;;;;5034638;28;19904;-56
2022/03/15 00:51:34;;;;;;;;;;;;;;;;;;5034574;28;19905;-57
2022/03/15 00:54:00;;;;;;;;;;;;;;;;;;5034821;28;19909;-56
2022/03/15 00:56:26;;;;;;;;;;;;;;;;;;5034478;28;19920;-57
2022/03/15 00:58:51;;;;;;;;;;;;;;;;;;5034523;28;19936;-57
2022/03/15 01:01:18;;;;;;;;;;;;;;;;;;5034426;28;20425;-57
2022/03/15 01:03:43;;;;;;;;;;;;;;;;;;5034153;28;20011;-57
2022/03/15 01:06:09;;;;;;;;;;;;;;;;;;5034351;28;19905;-56
2022/03/15 01:08:35;;;;;;;;;;;;;;;;;;5034230;28;19906;-58
2022/03/15 01:11:02;;;;;;;;;;;;;;;;;;5034294;28;20397;-57
2022/03/15 01:13:28;;;;;;;;;;;;;;;;;;5034243;28;19912;-56
2022/03/15 01:15:53;;;;;;;;;;;;;;;;;;5034177;28;20303;-57
2022/03/15 01:18:20;;;;;;;;;;;;;;;;;;5034122;28;19912;-58
2022/03/15 01:20:46;;;;;;;;;;;;;;;;;;5034089;28;19905;-57
2022/03/15 01:23:12;;;;;;;;;;;;;;;;;;5034021;28;19905;-58
2022/03/15 01:25:38;;;;;;;;;;;;;;;;;;5032643;28;20305;-57
2022/03/15 01:28:04;;;;;;;;;;;;;;;;;;5034191;28;20249;-57
2022/03/15 01:30:30;;;;;;;;;;;;;;;;;;5033836;28;19912;-57
2022/03/15 01:32:56;;;;;;;;;;;;;;;;;;5034140;28;19905;-58
2022/03/15 01:35:22;;;;;;;;;;;;;;;;;;5033764;28;19920;-57
2022/03/15 01:37:48;;;;;;;;;;;;;;;;;;5033969;28;20000;-57
2022/03/15 01:40:14;;;;;;;;;;;;;;;;;;5033728;28;20421;-57
2022/03/15 01:42:40;;;;;;;;;;;;;;;;;;5033591;28;19905;-58
2022/03/15 01:45:06;;;;;;;;;;;;;;;;;;5033567;28;19905;-56
2022/03/15 01:47:32;;;;;;;;;;;;;;;;;;5033867;28;20008;-57
2022/03/15 01:49:58;;;;;;;;;;;;;;;;;;5033498;28;19952;-57
2022/03/15 01:52:23;;;;;;;;;;;;;;;;;;5033537;28;19912;-58
2022/03/15 01:54:49;;;;;;;;;;;;;;;;;;5032793;28;20029;-56
2022/03/15 01:57:16;;;;;;;;;;;;;;;;;;5033350;28;19905;-58
2022/03/15 01:59:41;;;;;;;;;;;;;;;;;;5033313;28;20377;-58
2022/03/15 02:02:07;;;;;;;;;;;;;;;;;;5033248;28;19995;-57
2022/03/15 02:04:34;;;;;;;;;;;;;;;;;;5033526;28;20253;-57
2022/03/15 02:07:00;;;;;;;;;;;;;;;;;;5033145;28;19905;-57
2022/03/15 02:09:26;;;;;;;;;;;;;;;;;;5033182;28;19905;-57
2022/03/15 02:11:52;;;;;;;;;;;;;;;;;;5033224;28;19905;-56
2022/03/15 02:14:18;;;;;;;;;;;;;;;;;;5033163;28;20260;-56
2022/03/15 02:16:44;;;;;;;;;;;;;;;;;;5033039;28;20390;-58
2022/03/15 02:19:10;;;;;;;;;;;;;;;;;;5033061;28;19905;-57
2022/03/15 02:21:36;;;;;;;;;;;;;;;;;;5032923;28;19912;-57
2022/03/15 02:24:02;;;;;;;;;;;;;;;;;;5032975;28;20366;-57
2022/03/15 02:26:28;;;;;;;;;;;;;;;;;;5032923;28;19960;-58
2022/03/15 02:28:54;;;;;;;;;;;;;;;;;;5032917;28;20367;-58
2022/03/15 02:31:20;;;;;;;;;;;;;;;;;;5032905;28;19905;-57
2022/03/15 02:33:46;;;;;;;;;;;;;;;;;;5032850;28;20454;-58
2022/03/15 02:36:12;;;;;;;;;;;;;;;;;;5032755;28;19920;-56
2022/03/15 02:38:37;;;;;;;;;;;;;;;;;;5032815;28;19999;-58
2022/03/15 02:41:03;;;;;;;;;;;;;;;;;;5032725;28;19912;-58
2022/03/15 02:43:29;;;;;;;;;;;;;;;;;;5032692;28;19975;-57
2022/03/15 02:45:55;;;;;;;;;;;;;;;;;;5032725;28;19916;-57
2022/03/15 02:48:21;;;;;;;;;;;;;;;;;;5033018;28;19909;-57
2022/03/15 02:50:47;;;;;;;;;;;;;;;;;;5032647;28;20287;-57
2022/03/15 02:53:14;;;;;;;;;;;;;;;;;;5032594;28;19975;-57
2022/03/15 02:55:39;;;;;;;;;;;;;;;;;;5032759;28;19913;-57
2022/03/15 02:58:05;;;;;;;;;;;;;;;;;;5032520;28;19999;-57
2022/03/15 03:00:31;;;;;;;;;;;;;;;;;;5032622;28;19923;-56
2022/03/15 03:02:57;;;;;;;;;;;;;;;;;;5032444;28;20007;-55
2022/03/15 03:05:23;;;;;;;;;;;;;;;;;;5033803;28;19912;-56
2022/03/15 03:07:49;;;;;;;;;;;;;;;;;;5036890;28;19905;-54
2022/03/15 03:10:17;;;;;;;;;;;;;;;;;;5036767;28;19905;-56
2022/03/15 03:12:42;;;;;;;;;;;;;;;;;;5036542;28;19940;-57
2022/03/15 03:15:11;;;;;;;;;;;;;;;;;;5036276;28;20344;-56
2022/03/15 03:17:40;;;;;;;;;;;;;;;;;;5036667;28;19928;-56
2022/03/15 03:20:06;;;;;;;;;;;;;;;;;;5036415;28;19912;-57
2022/03/15 03:22:32;;;;;;;;;;;;;;;;;;5036331;28;19905;-56
2022/03/15 03:24:58;;;;;;;;;;;;;;;;;;5036344;28;19991;-56
2022/03/15 03:27:24;;;;;;;;;;;;;;;;;;5036250;28;19909;-57
2022/03/15 03:29:50;;;;;;;;;;;;;;;;;;5036188;28;19905;-58
2022/03/15 03:32:17;;;;;;;;;;;;;;;;;;5036174;28;20000;-58
2022/03/15 03:34:42;;;;;;;;;;;;;;;;;;5036053;28;19919;-58
2022/03/15 03:37:08;;;;;;;;;;;;;;;;;;5036015;28;19936;-58
2022/03/15 03:39:34;;;;;;;;;;;;;;;;;;5035981;28;20326;-58
2022/03/15 03:42:00;;;;;;;;;;;;;;;;;;5035889;28;19910;-56
2022/03/15 03:44:26;;;;;;;;;;;;;;;;;;5035941;28;20364;-57
2022/03/15 03:46:52;;;;;;;;;;;;;;;;;;5035841;28;19905;-57
2022/03/15 03:49:18;;;;;;;;;;;;;;;;;;5035745;28;20314;-57
2022/03/15 03:51:44;;;;;;;;;;;;;;;;;;5035825;28;19905;-57
2022/03/15 03:54:10;;;;;;;;;;;;;;;;;;5036005;28;19912;-56
2022/03/15 03:56:36;;;;;;;;;;;;;;;;;;5035586;28;20287;-56
2022/03/15 03:59:02;;;;;;;;;;;;;;;;;;5035655;28;19905;-57
2022/03/15 04:01:28;;;;;;;;;;;;;;;;;;5035543;28;19911;-57
2022/03/15 04:03:54;;;;;;;;;;;;;;;;;;5035455;28;19921;-57
2022/03/15 04:06:19;;;;;;;;;;;;;;;;;;5035495;28;19905;-57
2022/03/15 04:08:46;;;;;;;;;;;;;;;;;;5035418;28;19905;-57
2022/03/15 04:11:12;;;;;;;;;;;;;;;;;;5035367;28;19905;-57
2022/03/15 04:13:41;;;;;;;;;;;;;;;;;;5035334;28;19905;-56
2022/03/15 04:16:07;;;;;;;;;;;;;;;;;;5035461;28;19913;-57
2022/03/15 04:18:32;;;;;;;;;;;;;;;;;;5034575;28;20454;-56
2022/03/15 04:20:58;;;;;;;;;;;;;;;;;;5035215;28;19905;-58
2022/03/15 04:23:24;;;;;;;;;;;;;;;;;;5035130;28;19912;-57
2022/03/15 04:25:51;;;;;;;;;;;;;;;;;;5035167;28;19905;-57
2022/03/15 04:28:17;;;;;;;;;;;;;;;;;;5035096;28;20364;-58
2022/03/15 04:30:43;;;;;;;;;;;;;;;;;;5035012;28;19912;-57
2022/03/15 04:33:09;;;;;;;;;;;;;;;;;;5035025;28;20365;-56
2022/03/15 04:35:35;;;;;;;;;;;;;;;;;;5034847;28;19913;-58
2022/03/15 04:38:01;;;;;;;;;;;;;;;;;;5035276;28;19908;-57
2022/03/15 04:40:27;;;;;;;;;;;;;;;;;;5034969;28;19951;-57
2022/03/15 04:42:53;;;;;;;;;;;;;;;;;;5034865;28;19909;-56
2022/03/15 04:45:19;;;;;;;;;;;;;;;;;;5034780;28;19905;-58
2022/03/15 04:47:45;;;;;;;;;;;;;;;;;;5034997;28;19955;-58
2022/03/15 04:50:11;;;;;;;;;;;;;;;;;;5034953;28;19917;-57
2022/03/15 04:52:37;;;;;;;;;;;;;;;;;;5034525;28;19975;-56
2022/03/15 04:55:03;;;;;;;;;;;;;;;;;;5034526;28;20371;-58
2022/03/15 04:57:29;;;;;;;;;;;;;;;;;;5034615;28;19909;-56
2022/03/15 04:59:55;;;;;;;;;;;;;;;;;;5034461;28;19905;-57
2022/03/15 05:02:22;;;;;;;;;;;;;;;;;;5034193;28;19952;-56
2022/03/15 05:04:47;;;;;;;;;;;;;;;;;;5034673;28;20362;-57
2022/03/15 05:07:13;;;;;;;;;;;;;;;;;;5034346;28;19955;-57
2022/03/15 05:11:06;;;;;;;;;;;;;;;;;;5034261;28;20287;-56
2022/03/15 05:12:25;;;;;;;;;;;;;;;;;;5034243;28;20372;-57
2022/03/15 05:14:51;;;;;;;;;;;;;;;;;;5034492;28;19998;-57
2022/03/15 05:17:18;;;;;;;;;;;;;;;;;;5034192;28;19967;-57
2022/03/15 05:19:44;;;;;;;;;;;;;;;;;;5034154;28;20235;-56
2022/03/15 05:22:10;;;;;;;;;;;;;;;;;;5034072;28;19905;-56
2022/03/15 05:24:36;;;;;;;;;;;;;;;;;;5034001;28;19905;-57
2022/03/15 05:27:01;;;;;;;;;;;;;;;;;;5034006;28;19911;-57
2022/03/15 05:29:27;;;;;;;;;;;;;;;;;;5032922;28;20334;-58
2022/03/15 05:31:53;;;;;;;;;;;;;;;;;;5033948;28;19955;-56
2022/03/15 05:34:19;;;;;;;;;;;;;;;;;;5033916;28;19905;-57
2022/03/15 05:36:45;;;;;;;;;;;;;;;;;;5034003;28;19913;-57
2022/03/15 05:39:11;;;;;;;;;;;;;;;;;;5033732;28;20318;-57
2022/03/15 05:41:39;;;;;;;;;;;;;;;;;;5033723;28;19905;-57
2022/03/15 05:44:05;;;;;;;;;;;;;;;;;;5033707;28;19952;-57
2022/03/15 05:46:32;;;;;;;;;;;;;;;;;;5033537;28;19909;-56
2022/03/15 05:48:58;;;;;;;;;;;;;;;;;;5033872;28;19905;-57
2022/03/15 05:51:23;;;;;;;;;;;;;;;;;;5033565;28;19905;-57
2022/03/15 05:53:49;;;;;;;;;;;;;;;;;;5033453;28;19927;-57
2022/03/15 05:56:15;;;;;;;;;;;;;;;;;;5033640;28;19913;-58
2022/03/15 05:58:43;;;;;;;;;;;;;;;;;;5033356;28;20279;-58
2022/03/15 06:01:09;;;;;;;;;;;;;;;;;;5033385;28;20318;-58
2022/03/15 06:03:35;;;;;;;;;;;;;;;;;;5033603;28;19917;-57
2022/03/15 06:06:01;;;;;;;;;;;;;;;;;;5033277;28;19909;-55
2022/03/15 06:08:27;;;;;;;;;;;;;;;;;;5033268;28;20012;-57
2022/03/15 06:13:37;;;;;;;;;;;;;;;;;;5033191;28;20011;-56
2022/03/15 06:16:03;;;;;;;;;;;;;;;;;;5032973;28;20386;-56
2022/03/15 06:18:29;;;;;;;;;;;;;;;;;;5033063;28;19905;-57
2022/03/15 06:20:55;;;;;;;;;;;;;;;;;;5032952;28;19959;-57
2022/03/15 06:23:22;;;;;;;;;;;;;;;;;;5033285;28;19915;-57
2022/03/15 06:25:48;;;;;;;;;;;;;;;;;;5033209;28;20326;-58
2022/03/15 06:28:14;;;;;;;;;;;;;;;;;;5033022;28;19905;-58
2022/03/15 06:30:41;;;;;;;;;;;;;;;;;;5032913;28;19905;-55
2022/03/15 06:33:07;;;;;;;;;;;;;;;;;;5033125;28;19905;-59
2022/03/15 06:35:33;;;;;;;;;;;;;;;;;;5032664;28;20423;-58
2022/03/15 06:37:59;;;;;;;;;;;;;;;;;;5032801;28;20383;-58
2022/03/15 06:40:26;;;;;;;;;;;;;;;;;;5032616;28;20271;-58
2022/03/15 06:42:52;;;;;;;;;;;;;;;;;;5032782;28;19906;-58
2022/03/15 06:45:18;;;;;;;;;;;;;;;;;;5032875;28;19905;-59
2022/03/15 06:47:43;;;;;;;;;;;;;;;;;;5032812;28;19959;-57
2022/03/15 06:50:12;;;;;;;;;;;;;;;;;;5032688;28;19905;-59
2022/03/15 06:52:38;;;;;;;;;;;;;;;;;;5032686;28;19905;-59
2022/03/15 06:55:03;;;;;;;;;;;;;;;;;;5032521;28;19915;-59
2022/03/15 06:57:29;;;;;;;;;;;;;;;;;;5032562;28;19967;-59
2022/03/15 06:59:56;;;;;;;;;;;;;;;;;;5032546;28;19948;-59
2022/03/15 07:02:22;;;;;;;;;;;;;;;;;;5032364;28;19921;-59
2022/03/15 07:04:48;;;;;;;;;;;;;;;;;;5032551;28;19911;-59
2022/03/15 07:07:14;;;;;;;;;;;;;;;;;;5032510;28;19905;-59
2022/03/15 07:09:42;;;;;;;;;;;;;;;;;;5032425;28;20491;-59
2022/03/15 07:12:07;;;;;;;;;;;;;;;;;;5032603;28;19966;-59
2022/03/15 07:14:33;;;;;;;;;;;;;;;;;;5032334;28;20426;-59
2022/03/15 07:16:59;;;;;;;;;;;;;;;;;;5032199;28;19917;-59
2022/03/15 07:19:27;;;;;;;;;;;;;;;;;;5032527;28;20382;-59
2022/03/15 07:21:53;;;;;;;;;;;;;;;;;;5032288;28;19905;-59
2022/03/15 07:24:19;;;;;;;;;;;;;;;;;;5031030;28;20414;-59
2022/03/15 07:26:44;;;;;;;;;;;;;;;;;;5032821;28;19951;-59
2022/03/15 07:29:10;;;;;;;;;;;;;;;;;;5032100;28;20577;-59
2022/03/15 07:31:36;;;;;;;;;;;;;;;;;;5032079;28;19905;-59
2022/03/15 07:34:02;;;;;;;;;;;;;;;;;;5031956;28;19905;-59
2022/03/15 07:36:28;;;;;;;;;;;;;;;;;;5031923;28;19913;-59
2022/03/15 07:38:54;;;;;;;;;;;;;;;;;;5032118;28;19996;-59
2022/03/15 07:41:23;;;;;;;;;;;;;;;;;;5032147;28;19927;-59
2022/03/15 07:43:49;;;;;;;;;;;;;;;;;;5032144;28;20070;-56
2022/03/15 07:46:15;;;;;;;;;;;;;;;;;;5032106;28;19905;-58
2022/03/15 07:48:41;;;;;;;;;;;;;;;;;;5032147;28;19967;-57
2022/03/15 07:51:06;;;;;;;;;;;;;;;;;;5032095;28;19947;-57
2022/03/15 07:53:32;;;;;;;;;;;;;;;;;;5034830;28;19951;-56
2022/03/15 07:56:01;;;;;;;;;;;;;;;;;;5035880;28;19913;-56
2022/03/15 07:58:27;;;;;;;;;;;;;;;;;;5035617;28;19909;-56
2022/03/15 08:00:56;;;;;;;;;;;;;;;;;;5035741;28;19905;-57
2022/03/15 08:03:22;;;;;;;;;;;;;;;;;;5035416;28;19921;-60
2022/03/15 08:05:48;;;;;;;;;;;;;;;;;;5035811;28;19909;-59
2022/03/15 08:08:15;;;;;;;;;;;;;;;;;;5035426;28;20314;-59
2022/03/15 08:10:41;;;;;;;;;;;;;;;;;;5035745;28;19913;-59
2022/03/15 08:13:07;;;;;;;;;;;;;;;;;;5035583;28;19966;-59
2022/03/15 08:15:33;;;;;;;;;;;;;;;;;;5035276;28;20493;-59
2022/03/15 08:17:59;;;;;;;;;;;;;;;;;;5035578;28;19912;-59
2022/03/15 08:20:32;;;;;;;;;;;;;;;;;;5035537;28;19909;-58
2022/03/15 08:22:58;;;;;;;;;;;;;;;;;;5035481;28;19909;-56
2022/03/15 08:25:24;;;;;;;;;;;;;;;;;;5035350;28;19999;-56
2022/03/15 08:27:50;;;;;;;;;;;;;;;;;;5035156;28;19905;-57
2022/03/15 08:30:16;;;;;;;;;;;;;;;;;;5035027;28;19936;-56
2022/03/15 08:32:42;;;;;;;;;;;;;;;;;;5034958;28;20003;-56
2022/03/15 08:35:08;;;;;;;;;;;;;;;;;;5034765;28;19909;-58
2022/03/15 08:37:34;;;;;;;;;;;;;;;;;;5034967;28;20437;-55
2022/03/15 08:40:00;;;;;;;;;;;;;;;;;;5035217;28;19924;-55
2022/03/15 08:42:26;;;;;;;;;;;;;;;;;;5035101;28;19936;-58
2022/03/15 08:44:52;;;;;;;;;;;;;;;;;;5035089;28;20376;-58
2022/03/15 08:47:18;;;;;;;;;;;;;;;;;;5034763;28;20505;-56
2022/03/15 08:49:44;;;;;;;;;;;;;;;;;;5034739;28;20371;-57
2022/03/15 08:52:10;;;;;;;;;;;;;;;;;;5034909;28;19906;-57
2022/03/15 08:54:37;;;;;;;;;;;;;;;;;;5034639;28;19905;-57
2022/03/15 08:57:02;;;;;;;;;;;;;;;;;;5034899;28;19913;-56
2022/03/15 08:59:28;;;;;;;;;;;;;;;;;;5034480;28;19905;-58
2022/03/15 09:01:54;;;;;;;;;;;;;;;;;;5034256;28;20002;-57
2022/03/15 09:04:20;;;;;;;;;;;;;;;;;;5034298;28;19917;-57
2022/03/15 09:06:47;;;;;;;;;;;;;;;;;;5034376;28;20375;-57
2022/03/15 09:09:13;;;;;;;;;;;;;;;;;;5034263;28;20359;-55
2022/03/15 09:11:39;;;;;;;;;;;;;;;;;;5034221;28;19912;-56
2022/03/15 09:14:05;;;;;;;;;;;;;;;;;;5034645;28;19912;-56
2022/03/15 09:16:31;;;;;;;;;;;;;;;;;;5034100;28;19921;-55
2022/03/15 09:18:58;;;;;;;;;;;;;;;;;;5034049;28;19988;-56
2022/03/15 09:21:23;;;;;;;;;;;;;;;;;;5034059;28;19905;-56
2022/03/15 09:23:51;;;;;;;;;;;;;;;;;;5033900;28;19905;-55
2022/03/15 09:26:17;;;;;;;;;;;;;;;;;;5034288;28;20268;-58
2022/03/15 09:28:44;;;;;;;;;;;;;;;;;;5033947;28;20003;-57
2022/03/15 09:31:10;;;;;;;;;;;;;;;;;;5034013;28;20355;-56
2022/03/15 09:33:36;;;;;;;;;;;;;;;;;;5033952;28;19951;-56
2022/03/15 09:36:02;;;;;;;;;;;;;;;;;;5033800;28;19921;-57
2022/03/15 09:38:28;;;;;;;;;;;;;;;;;;5033731;28;19906;-54
2022/03/15 09:40:54;;;;;;;;;;;;;;;;;;5033718;28;19912;-57
2022/03/15 09:43:20;;;;;;;;;;;;;;;;;;5033667;28;20431;-56
2022/03/15 09:45:45;;;;;;;;;;;;;;;;;;5033549;28;19905;-57
2022/03/15 09:48:11;;;;;;;;;;;;;;;;;;5033561;28;19909;-55
2022/03/15 09:50:37;;;;;;;;;;;;;;;;;;5033606;28;20063;-56
2022/03/15 09:53:03;;;;;;;;;;;;;;;;;;5033516;28;19905;-58
2022/03/15 09:55:29;;;;;;;;;;;;;;;;;;5033359;28;19913;-57
2022/03/15 09:57:55;;;;;;;;;;;;;;;;;;5033366;28;19996;-56
2022/03/15 10:00:21;;;;;;;;;;;;;;;;;;5033383;28;20353;-58
2022/03/15 10:02:47;;;;;;;;;;;;;;;;;;5033116;28;19920;-57
2022/03/15 10:05:13;;;;;;;;;;;;;;;;;;5033469;28;19906;-56
2022/03/15 10:07:39;;;;;;;;;;;;;;;;;;5033252;28;19905;-57
2022/03/15 10:10:06;;;;;;;;;;;;;;;;;;5033280;28;20327;-59
2022/03/15 10:12:32;;;;;;;;;;;;;;;;;;5033251;28;19905;-56
2022/03/15 10:14:58;;;;;;;;;;;;;;;;;;5032460;28;20394;-56
2022/03/15 10:17:24;;;;;;;;;;;;;;;;;;5033194;28;19995;-57
2022/03/15 10:19:50;;;;;;;;;;;;;;;;;;5033289;28;19951;-58
2022/03/15 10:22:15;;;;;;;;;;;;;;;;;;5033039;28;20325;-57
2022/03/15 10:24:42;;;;;;;;;;;;;;;;;;5032826;28;19909;-57
2022/03/15 10:27:08;;;;;;;;;;;;;;;;;;5032995;28;19913;-58
2022/03/15 10:29:34;;;;;;;;;;;;;;;;;;5032851;28;20067;-56
2022/03/15 10:32:00;;;;;;;;;;;;;;;;;;5032827;28;19912;-57
2022/03/15 10:34:26;;;;;;;;;;;;;;;;;;5032839;28;19906;-57
2022/03/15 10:36:54;;;;;;;;;;;;;;;;;;5032664;28;19919;-57
2022/03/15 10:39:19;;;;;;;;;;;;;;;;;;5032785;28;19905;-58
2022/03/15 10:41:45;;;;;;;;;;;;;;;;;;5032732;28;20390;-57
2022/03/15 10:44:11;;;;;;;;;;;;;;;;;;5032977;28;20025;-56
2022/03/15 10:46:37;;;;;;;;;;;;;;;;;;5033021;28;20314;-58
2022/03/15 10:49:03;;;;;;;;;;;;;;;;;;5032704;28;19912;-57
2022/03/15 10:51:29;;;;;;;;;;;;;;;;;;5032690;28;20401;-56
2022/03/15 10:53:56;;;;;;;;;;;;;;;;;;5032611;28;19905;-57
2022/03/15 10:56:22;;;;;;;;;;;;;;;;;;5032462;28;19917;-55
2022/03/15 10:58:48;;;;;;;;;;;;;;;;;;5032666;28;19912;-55
2022/03/15 11:01:14;;;;;;;;;;;;;;;;;;5032840;28;20287;-58
2022/03/15 11:03:40;;;;;;;;;;;;;;;;;;5032473;28;20295;-56
2022/03/15 11:06:08;;;;;;;;;;;;;;;;;;5032570;28;20376;-52
2022/03/15 11:08:34;;;;;;;;;;;;;;;;;;5032605;28;19928;-52
2022/03/15 11:11:06;;;;;;;;;;;;;;;;;;5032462;28;20316;-54
2022/03/15 11:13:32;;;;;;;;;;;;;;;;;;5032694;28;20274;-55
2022/03/15 11:15:58;;;;;;;;;;;;;;;;;;5032403;28;19923;-55
2022/03/15 11:18:24;;;;;;;;;;;;;;;;;;5032465;28;19940;-54
2022/03/15 11:20:50;;;;;;;;;;;;;;;;;;5032730;28;19955;-52
2022/03/15 11:23:16;;;;;;;;;;;;;;;;;;5032463;28;19905;-52
2022/03/15 11:25:42;;;;;;;;;;;;;;;;;;5032380;28;19909;-52
2022/03/15 11:28:09;;;;;;;;;;;;;;;;;;5034726;28;19996;-51
2022/03/15 11:30:35;;;;;;;;;;;;;;;;;;5036088;28;19909;-52
2022/03/15 11:33:02;;;;;;;;;;;;;;;;;;5036340;28;19916;-52
2022/03/15 11:35:29;;;;;;;;;;;;;;;;;;5036050;28;19920;-52
2022/03/15 11:37:55;;;;;;;;;;;;;;;;;;5036381;28;19905;-51
2022/03/15 11:40:21;;;;;;;;;;;;;;;;;;5036025;28;19917;-52
2022/03/15 11:42:47;;;;;;;;;;;;;;;;;;5036263;28;19905;-52
2022/03/15 11:45:13;;;;;;;;;;;;;;;;;;5035879;28;19905;-52
2022/03/15 11:47:39;;;;;;;;;;;;;;;;;;5036105;28;20466;-51
2022/03/15 11:50:05;;;;;;;;;;;;;;;;;;5035844;28;19905;-52
2022/03/15 11:52:31;;;;;;;;;;;;;;;;;;5035753;28;19983;-52
2022/03/15 11:54:57;;;;;;;;;;;;;;;;;;5035629;28;19997;-54
2022/03/15 11:57:23;;;;;;;;;;;;;;;;;;5035594;28;19913;-53
2022/03/15 11:59:49;;;;;;;;;;;;;;;;;;5035607;28;19951;-53
2022/03/15 12:02:15;;;;;;;;;;;;;;;;;;5035418;28;20291;-52
2022/03/15 12:04:44;;;;;;;;;;;;;;;;;;5035618;28;19952;-53
2022/03/15 12:07:12;;;;;;;;;;;;;;;;;;5035563;28;19905;-52
2022/03/15 12:09:37;;;;;;;;;;;;;;;;;;5035785;28;20268;-54
2022/03/15 12:12:03;;;;;;;;;;;;;;;;;;5035419;28;19905;-53
2022/03/15 12:14:37;;;;;;;;;;;;;;;;;;5035295;28;20054;-53
2022/03/15 12:17:04;;;;;;;;;;;;;;;;;;5035491;28;19932;-53
2022/03/15 12:19:35;;;;;;;;;;;;;;;;;;5035352;28;20038;-51
2022/03/15 12:22:03;;;;;;;;;;;;;;;;;;5035303;28;19909;-52
2022/03/15 12:24:29;;;;;;;;;;;;;;;;;;5034896;28;19905;-53
2022/03/15 12:26:58;;;;;;;;;;;;;;;;;;5034818;28;19912;-52
2022/03/15 12:29:26;;;;;;;;;;;;;;;;;;5035044;28;19905;-54
2022/03/15 12:31:52;;;;;;;;;;;;;;;;;;5035047;28;20027;-52
2022/03/15 12:34:18;;;;;;;;;;;;;;;;;;5034735;28;20475;-52
2022/03/15 12:36:44;;;;;;;;;;;;;;;;;;5034847;28;20299;-54
2022/03/15 12:39:10;;;;;;;;;;;;;;;;;;5034418;28;19912;-53
2022/03/15 12:41:36;;;;;;;;;;;;;;;;;;5034836;28;20018;-52
2022/03/15 12:44:02;;;;;;;;;;;;;;;;;;5034766;28;19912;-53
2022/03/15 12:46:30;;;;;;;;;;;;;;;;;;5034867;28;20311;-52
2022/03/15 12:48:57;;;;;;;;;;;;;;;;;;5035021;28;19905;-52
2022/03/15 12:51:23;;;;;;;;;;;;;;;;;;5035028;28;19905;-52
2022/03/15 12:53:49;;;;;;;;;;;;;;;;;;5035033;28;19959;-53
2022/03/15 12:56:15;;;;;;;;;;;;;;;;;;5034849;28;19916;-58
2022/03/15 12:58:41;;;;;;;;;;;;;;;;;;5034561;28;20354;-57
2022/03/15 13:01:07;;;;;;;;;;;;;;;;;;5034530;28;19948;-56
2022/03/15 13:03:35;;;;;;;;;;;;;;;;;;5034318;28;20075;-58
2022/03/15 13:06:01;;;;;;;;;;;;;;;;;;5034391;28;19933;-57
2022/03/15 13:08:27;;;;;;;;;;;;;;;;;;5034354;28;19952;-57
2022/03/15 13:10:53;;;;;;;;;;;;;;;;;;5034599;28;19951;-57
2022/03/15 13:13:21;;;;;;;;;;;;;;;;;;5034595;28;20256;-57
2022/03/15 13:15:50;;;;;;;;;;;;;;;;;;5034160;28;19913;-56
2022/03/15 13:18:16;;;;;;;;;;;;;;;;;;5034214;28;20286;-57
2022/03/15 13:20:41;;;;;;;;;;;;;;;;;;5034065;28;19905;-56
2022/03/15 13:23:08;;;;;;;;;;;;;;;;;;5034069;28;19975;-58
2022/03/15 13:25:34;;;;;;;;;;;;;;;;;;5034074;28;19909;-57
2022/03/15 13:28:06;;;;;;;;;;;;;;;;;;5034296;28;19927;-56
2022/03/15 13:30:32;;;;;;;;;;;;;;;;;;5034249;28;19945;-57
2022/03/15 13:32:58;;;;;;;;;;;;;;;;;;5033966;28;20054;-58
2022/03/15 13:35:24;;;;;;;;;;;;;;;;;;5033750;28;19909;-58
2022/03/15 13:37:50;;;;;;;;;;;;;;;;;;5034040;28;19905;-56
2022/03/15 13:40:19;;;;;;;;;;;;;;;;;;5033750;28;19983;-56
2022/03/15 13:42:47;;;;;;;;;;;;;;;;;;5033660;28;19905;-56
2022/03/15 13:45:13;;;;;;;;;;;;;;;;;;5033985;28;20271;-56
2022/03/15 13:47:40;;;;;;;;;;;;;;;;;;5033815;28;19927;-56
2022/03/15 13:50:06;;;;;;;;;;;;;;;;;;5032732;28;20343;-57
2022/03/15 13:52:33;;;;;;;;;;;;;;;;;;5033530;28;19912;-56
2022/03/15 13:55:04;;;;;;;;;;;;;;;;;;5033662;28;20334;-57
2022/03/15 13:57:30;;;;;;;;;;;;;;;;;;5033722;28;20287;-57
2022/03/15 13:59:56;;;;;;;;;;;;;;;;;;5033595;28;19912;-57
2022/03/15 14:02:22;;;;;;;;;;;;;;;;;;5033314;28;19913;-57
2022/03/15 14:04:48;;;;;;;;;;;;;;;;;;5033164;28;19909;-56
2022/03/15 14:07:14;;;;;;;;;;;;;;;;;;5033153;28;19920;-57
2022/03/15 14:09:40;;;;;;;;;;;;;;;;;;5033277;28;20371;-55
2022/03/15 14:12:08;;;;;;;;;;;;;;;;;;5033137;28;19912;-58
2022/03/15 14:14:34;;;;;;;;;;;;;;;;;;5033168;28;19995;-57
2022/03/15 14:17:02;;;;;;;;;;;;;;;;;;5033364;28;19913;-56
2022/03/15 14:19:28;;;;;;;;;;;;;;;;;;5032294;28;19905;-55
2022/03/15 14:21:54;;;;;;;;;;;;;;;;;;5032631;28;20331;-57
2022/03/15 14:24:23;;;;;;;;;;;;;;;;;;5033375;28;19951;-57
2022/03/15 14:26:49;;;;;;;;;;;;;;;;;;5032995;28;19905;-56
2022/03/15 14:29:19;;;;;;;;;;;;;;;;;;5033276;28;19911;-57
2022/03/15 14:31:46;;;;;;;;;;;;;;;;;;5032924;28;20004;-57
2022/03/15 14:34:14;;;;;;;;;;;;;;;;;;5033182;28;19909;-57
2022/03/15 14:36:41;;;;;;;;;;;;;;;;;;5032833;28;20382;-57
2022/03/15 14:39:06;;;;;;;;;;;;;;;;;;5033074;28;20315;-57
2022/03/15 14:41:32;;;;;;;;;;;;;;;;;;5032824;28;19983;-57
2022/03/15 14:43:59;;;;;;;;;;;;;;;;;;5032623;28;19905;-56
2022/03/15 14:46:25;;;;;;;;;;;;;;;;;;5032982;28;19912;-57
2022/03/15 14:48:51;;;;;;;;;;;;;;;;;;5032716;28;19909;-57
2022/03/15 14:51:17;;;;;;;;;;;;;;;;;;5032702;28;20279;-57
2022/03/15 14:53:43;;;;;;;;;;;;;;;;;;5032697;28;20051;-57
2022/03/15 14:56:10;;;;;;;;;;;;;;;;;;5032589;28;20004;-57
2022/03/15 14:58:36;;;;;;;;;;;;;;;;;;5032747;28;20290;-57
2022/03/15 15:01:03;;;;;;;;;;;;;;;;;;5033490;28;19904;-57
2022/03/15 15:03:28;;;;;;;;;;;;;;;;;;5036419;28;19917;-58
2022/03/15 15:05:57;;;;;;;;;;;;;;;;;;5036800;28;19905;-57
2022/03/15 15:08:25;;;;;;;;;;;;;;;;;;5036721;28;19905;-57
2022/03/15 15:10:51;;;;;;;;;;;;;;;;;;5036829;28;19909;-56
2022/03/15 15:13:17;;;;;;;;;;;;;;;;;;5036552;28;19905;-57
2022/03/15 15:15:46;;;;;;;;;;;;;;;;;;5036489;28;19999;-56
2022/03/15 15:18:13;;;;;;;;;;;;;;;;;;5036416;28;19940;-57
2022/03/15 15:20:41;;;;;;;;;;;;;;;;;;5036681;28;19905;-56
2022/03/15 15:23:12;;;;;;;;;;;;;;;;;;5036534;28;19959;-57
2022/03/15 15:25:40;;;;;;;;;;;;;;;;;;5036418;28;19911;-56
2022/03/15 15:28:12;;;;;;;;;;;;;;;;;;5036200;28;20366;-56
2022/03/15 15:30:38;;;;;;;;;;;;;;;;;;5036505;28;19906;-56
2022/03/15 15:33:06;;;;;;;;;;;;;;;;;;5036107;28;19905;-57
2022/03/15 15:35:35;;;;;;;;;;;;;;;;;;5036107;28;19917;-57
2022/03/15 15:38:04;;;;;;;;;;;;;;;;;;5036349;28;19916;-56
2022/03/15 15:40:31;;;;;;;;;;;;;;;;;;5036216;28;19928;-57
2022/03/15 15:42:59;;;;;;;;;;;;;;;;;;5036312;28;20036;-57
2022/03/15 15:45:26;;;;;;;;;;;;;;;;;;5036003;28;19905;-55
2022/03/15 15:47:53;;;;;;;;;;;;;;;;;;5035883;28;19905;-56
2022/03/15 15:50:21;;;;;;;;;;;;;;;;;;5035856;28;19928;-55
2022/03/15 15:52:48;;;;;;;;;;;;;;;;;;5035856;28;19912;-56
2022/03/15 15:55:14;;;;;;;;;;;;;;;;;;5035692;28;19905;-56
2022/03/15 15:57:39;;;;;;;;;;;;;;;;;;5035727;28;20415;-56
2022/03/15 16:00:06;;;;;;;;;;;;;;;;;;5035714;28;19905;-56
2022/03/15 16:02:32;;;;;;;;;;;;;;;;;;5035370;28;19917;-57
2022/03/15 16:04:58;;;;;;;;;;;;;;;;;;5035516;28;19932;-57
2022/03/15 16:07:39;;;;;;;;;;;;;;;;;;5035445;28;19944;-57
2022/03/15 16:10:05;;;;;;;;;;;;;;;;;;5035511;28;19912;-56
2022/03/15 16:12:33;;;;;;;;;;;;;;;;;;5034670;28;19962;-57
2022/03/15 16:14:58;;;;;;;;;;;;;;;;;;5035172;28;19931;-57
2022/03/15 16:17:24;;;;;;;;;;;;;;;;;;5035269;28;19913;-57
2022/03/15 16:19:50;;;;;;;;;;;;;;;;;;5035371;28;20394;-58
2022/03/15 16:22:16;;;;;;;;;;;;;;;;;;5035246;28;20359;-57
2022/03/15 16:24:44;;;;;;;;;;;;;;;;;;5035101;28;19911;-57
2022/03/15 16:27:10;;;;;;;;;;;;;;;;;;5035018;28;19904;-58
2022/03/15 16:29:35;;;;;;;;;;;;;;;;;;5034998;28;20360;-58
2022/03/15 16:32:01;;;;;;;;;;;;;;;;;;5034945;28;20425;-56
2022/03/15 16:34:27;;;;;;;;;;;;;;;;;;5034931;28;19927;-58
2022/03/15 16:36:53;;;;;;;;;;;;;;;;;;5034859;28;19967;-57
2022/03/15 16:39:19;;;;;;;;;;;;;;;;;;5034940;28;19937;-58
2022/03/15 16:41:46;;;;;;;;;;;;;;;;;;5034845;28;20337;-57